Time;durP1;ratioP1;P1;durP2;ratioP2;P2;SDS_P1;SDS_P2;PMS_P1;PMS_P2;Temp;Humidity;BMP_temperature;BMP_pressure;BME280_temperature;BME280_humidity;BME280_pressure;Samples;Min_cycle;Max_cycle;Signal;HPM_P1;HPM_P2
2022/07/21 00:00:34;;;;;;;;;;;;;;;;;;5053667;28;19915;-41
2022/07/21 00:02:59;;;;;;;;;;;;;;;;;;5053195;28;19964;-42
2022/07/21 00:05:25;;;;;;;;;;;;;;;;;;5053638;28;19905;-41
2022/07/21 00:07:50;;;;;;;;;;;;;;;;;;5053314;28;19951;-42
2022/07/21 00:10:15;;;;;;;;;;;;;;;;;;5053427;28;20036;-42
2022/07/21 00:12:41;;;;;;;;;;;;;;;;;;5053457;28;19936;-42
2022/07/21 00:15:07;;;;;;;;;;;;;;;;;;5052987;28;19912;-41
2022/07/21 00:17:33;;;;;;;;;;;;;;;;;;5052870;28;19920;-42
2022/07/21 00:19:58;;;;;;;;;;;;;;;;;;5053010;28;20042;-41
2022/07/21 00:22:23;;;;;;;;;;;;;;;;;;5053255;28;19999;-42
2022/07/21 00:24:49;;;;;;;;;;;;;;;;;;5052906;28;19923;-42
2022/07/21 00:27:14;;;;;;;;;;;;;;;;;;5052834;28;19920;-42
2022/07/21 00:29:40;;;;;;;;;;;;;;;;;;5053095;28;19916;-42
2022/07/21 00:32:05;;;;;;;;;;;;;;;;;;5052688;28;19930;-43
2022/07/21 00:34:31;;;;;;;;;;;;;;;;;;5052842;28;19904;-42
2022/07/21 00:36:57;;;;;;;;;;;;;;;;;;5052903;28;20279;-41
2022/07/21 00:39:22;;;;;;;;;;;;;;;;;;5052623;28;19908;-41
2022/07/21 00:41:47;;;;;;;;;;;;;;;;;;5052951;28;19908;-41
2022/07/21 00:44:12;;;;;;;;;;;;;;;;;;5052324;28;20007;-42
2022/07/21 00:46:38;;;;;;;;;;;;;;;;;;5052498;28;19956;-41
2022/07/21 00:49:03;;;;;;;;;;;;;;;;;;5052441;28;19908;-40
2022/07/21 00:51:29;;;;;;;;;;;;;;;;;;5052618;28;20489;-42
2022/07/21 00:53:54;;;;;;;;;;;;;;;;;;5052452;28;20003;-42
2022/07/21 00:56:19;;;;;;;;;;;;;;;;;;5052340;28;19913;-42
2022/07/21 00:58:45;;;;;;;;;;;;;;;;;;5052536;28;20308;-42
2022/07/21 01:01:10;;;;;;;;;;;;;;;;;;5052178;28;19912;-41
2022/07/21 01:03:37;;;;;;;;;;;;;;;;;;5052456;28;19960;-42
2022/07/21 01:06:02;;;;;;;;;;;;;;;;;;5052422;28;19913;-41
2022/07/21 01:08:27;;;;;;;;;;;;;;;;;;5052456;28;19908;-40
2022/07/21 01:10:53;;;;;;;;;;;;;;;;;;5052383;28;19999;-41
2022/07/21 01:13:18;;;;;;;;;;;;;;;;;;5052119;28;19944;-41
2022/07/21 01:15:43;;;;;;;;;;;;;;;;;;5052063;28;20374;-42
2022/07/21 01:18:08;;;;;;;;;;;;;;;;;;5051958;28;19943;-41
2022/07/21 01:20:35;;;;;;;;;;;;;;;;;;5051974;28;19908;-41
2022/07/21 01:23:00;;;;;;;;;;;;;;;;;;5051796;28;19920;-41
2022/07/21 01:25:25;;;;;;;;;;;;;;;;;;5052222;28;19909;-43
2022/07/21 01:27:51;;;;;;;;;;;;;;;;;;5051423;28;19958;-41
2022/07/21 01:30:16;;;;;;;;;;;;;;;;;;5051840;28;20377;-42
2022/07/21 01:32:41;;;;;;;;;;;;;;;;;;5052102;28;19909;-43
2022/07/21 01:35:07;;;;;;;;;;;;;;;;;;5051634;28;20381;-41
2022/07/21 01:37:32;;;;;;;;;;;;;;;;;;5051818;28;19913;-41
2022/07/21 01:42:41;;;;;;;;;;;;;;;;;;5051907;28;19988;-41
2022/07/21 01:45:06;;;;;;;;;;;;;;;;;;5051572;28;20811;-42
2022/07/21 01:47:32;;;;;;;;;;;;;;;;;;5051612;28;19958;-41
2022/07/21 01:49:57;;;;;;;;;;;;;;;;;;5051609;28;19958;-41
2022/07/21 01:52:22;;;;;;;;;;;;;;;;;;5051719;28;19995;-42
2022/07/21 01:54:47;;;;;;;;;;;;;;;;;;5051586;28;19908;-42
2022/07/21 01:57:13;;;;;;;;;;;;;;;;;;5051742;28;19963;-42
2022/07/21 01:59:38;;;;;;;;;;;;;;;;;;5051636;28;20351;-42
2022/07/21 02:02:03;;;;;;;;;;;;;;;;;;5051376;28;19909;-42
2022/07/21 02:04:29;;;;;;;;;;;;;;;;;;5051428;28;19958;-41
2022/07/21 02:06:54;;;;;;;;;;;;;;;;;;5051757;28;20350;-40
2022/07/21 02:09:19;;;;;;;;;;;;;;;;;;5051417;28;19908;-42
2022/07/21 02:11:44;;;;;;;;;;;;;;;;;;5051390;28;19908;-41
2022/07/21 02:14:10;;;;;;;;;;;;;;;;;;5051721;28;19966;-41
2022/07/21 02:16:35;;;;;;;;;;;;;;;;;;5051394;28;19962;-41
2022/07/21 02:19:00;;;;;;;;;;;;;;;;;;5051608;28;20335;-42
2022/07/21 02:21:25;;;;;;;;;;;;;;;;;;5051352;28;19913;-41
2022/07/21 02:23:51;;;;;;;;;;;;;;;;;;5051218;28;19916;-41
2022/07/21 02:26:16;;;;;;;;;;;;;;;;;;5050299;28;20003;-41
2022/07/21 02:28:41;;;;;;;;;;;;;;;;;;5051662;28;20285;-42
2022/07/21 02:31:07;;;;;;;;;;;;;;;;;;5051340;28;20244;-42
2022/07/21 02:33:32;;;;;;;;;;;;;;;;;;5051306;28;19912;-41
2022/07/21 02:35:57;;;;;;;;;;;;;;;;;;5051536;28;19912;-41
2022/07/21 02:38:22;;;;;;;;;;;;;;;;;;5051442;28;20275;-42
2022/07/21 02:40:48;;;;;;;;;;;;;;;;;;5054974;28;19909;-43
2022/07/21 02:43:13;;;;;;;;;;;;;;;;;;5054676;28;19954;-41
2022/07/21 02:45:39;;;;;;;;;;;;;;;;;;5055108;28;19920;-41
2022/07/21 02:48:04;;;;;;;;;;;;;;;;;;5053475;28;20347;-42
2022/07/21 02:50:30;;;;;;;;;;;;;;;;;;5054747;28;19958;-41
2022/07/21 02:52:55;;;;;;;;;;;;;;;;;;5053377;28;20464;-42
2022/07/21 02:55:21;;;;;;;;;;;;;;;;;;5054889;28;19913;-43
2022/07/21 02:57:46;;;;;;;;;;;;;;;;;;5054947;28;19905;-42
2022/07/21 03:00:11;;;;;;;;;;;;;;;;;;5054499;28;19909;-41
2022/07/21 03:02:37;;;;;;;;;;;;;;;;;;5054464;28;19959;-42
2022/07/21 03:05:02;;;;;;;;;;;;;;;;;;5054467;28;19921;-42
2022/07/21 03:07:27;;;;;;;;;;;;;;;;;;5054611;28;19908;-43
2022/07/21 03:09:52;;;;;;;;;;;;;;;;;;5054748;28;19909;-42
2022/07/21 03:12:18;;;;;;;;;;;;;;;;;;5054618;28;19939;-42
2022/07/21 03:14:43;;;;;;;;;;;;;;;;;;5054261;28;19912;-41
2022/07/21 03:17:08;;;;;;;;;;;;;;;;;;5054095;28;19917;-41
2022/07/21 03:19:33;;;;;;;;;;;;;;;;;;5054283;28;19912;-45
2022/07/21 03:21:59;;;;;;;;;;;;;;;;;;5054084;28;20294;-40
2022/07/21 03:24:24;;;;;;;;;;;;;;;;;;5054062;28;19920;-41
2022/07/21 03:26:49;;;;;;;;;;;;;;;;;;5052837;28;19967;-41
2022/07/21 03:29:15;;;;;;;;;;;;;;;;;;5053977;28;19909;-41
2022/07/21 03:31:40;;;;;;;;;;;;;;;;;;5054014;28;19952;-42
2022/07/21 03:34:06;;;;;;;;;;;;;;;;;;5053831;28;19912;-43
2022/07/21 03:36:31;;;;;;;;;;;;;;;;;;5054200;28;19928;-42
2022/07/21 03:38:57;;;;;;;;;;;;;;;;;;5054137;28;20402;-41
2022/07/21 03:41:22;;;;;;;;;;;;;;;;;;5053915;28;19909;-41
2022/07/21 03:43:47;;;;;;;;;;;;;;;;;;5053730;28;19916;-42
2022/07/21 03:46:13;;;;;;;;;;;;;;;;;;5053629;28;19909;-43
2022/07/21 03:48:38;;;;;;;;;;;;;;;;;;5053625;28;19998;-43
2022/07/21 03:51:03;;;;;;;;;;;;;;;;;;5052681;28;19908;-41
2022/07/21 03:53:28;;;;;;;;;;;;;;;;;;5053577;28;19909;-41
2022/07/21 03:55:54;;;;;;;;;;;;;;;;;;5053549;28;19908;-41
2022/07/21 03:58:19;;;;;;;;;;;;;;;;;;5053640;28;19913;-41
2022/07/21 04:00:44;;;;;;;;;;;;;;;;;;5053712;28;19909;-42
2022/07/21 04:03:10;;;;;;;;;;;;;;;;;;5053530;28;19913;-41
2022/07/21 04:05:35;;;;;;;;;;;;;;;;;;5053620;28;19909;-42
2022/07/21 04:08:00;;;;;;;;;;;;;;;;;;5052315;28;19912;-42
2022/07/21 04:10:26;;;;;;;;;;;;;;;;;;5051893;28;19909;-42
2022/07/21 04:12:51;;;;;;;;;;;;;;;;;;5053205;28;19995;-42
2022/07/21 04:15:17;;;;;;;;;;;;;;;;;;5052980;28;19905;-41
2022/07/21 04:17:42;;;;;;;;;;;;;;;;;;5053155;28;19924;-41
2022/07/21 04:20:07;;;;;;;;;;;;;;;;;;5053284;28;19908;-43
2022/07/21 04:22:32;;;;;;;;;;;;;;;;;;5053050;28;20426;-41
2022/07/21 04:24:59;;;;;;;;;;;;;;;;;;5052812;28;19912;-41
2022/07/21 04:27:24;;;;;;;;;;;;;;;;;;5053195;28;19959;-42
2022/07/21 04:29:50;;;;;;;;;;;;;;;;;;5053262;28;19940;-42
2022/07/21 04:32:16;;;;;;;;;;;;;;;;;;5052699;28;20430;-41
2022/07/21 04:34:41;;;;;;;;;;;;;;;;;;5052778;28;19908;-41
2022/07/21 04:37:06;;;;;;;;;;;;;;;;;;5052921;28;19967;-41
2022/07/21 04:39:31;;;;;;;;;;;;;;;;;;5053028;28;20420;-42
2022/07/21 04:41:57;;;;;;;;;;;;;;;;;;5052611;28;20359;-42
2022/07/21 04:44:22;;;;;;;;;;;;;;;;;;5052455;28;19927;-42
2022/07/21 04:46:47;;;;;;;;;;;;;;;;;;5052842;28;19909;-42
2022/07/21 04:49:12;;;;;;;;;;;;;;;;;;5052816;28;20385;-44
2022/07/21 04:51:38;;;;;;;;;;;;;;;;;;5052467;28;20016;-40
2022/07/21 04:54:04;;;;;;;;;;;;;;;;;;5052302;28;20423;-41
2022/07/21 04:56:29;;;;;;;;;;;;;;;;;;5052328;28;19916;-42
2022/07/21 04:58:55;;;;;;;;;;;;;;;;;;5052441;28;19904;-41
2022/07/21 05:01:20;;;;;;;;;;;;;;;;;;5052128;28;20337;-41
2022/07/21 05:03:45;;;;;;;;;;;;;;;;;;5052560;28;19973;-42
2022/07/21 05:06:11;;;;;;;;;;;;;;;;;;5052240;28;20256;-41
2022/07/21 05:08:36;;;;;;;;;;;;;;;;;;5050971;28;19915;-41
2022/07/21 05:11:01;;;;;;;;;;;;;;;;;;5052166;28;20386;-41
2022/07/21 05:13:26;;;;;;;;;;;;;;;;;;5052059;28;20331;-43
2022/07/21 05:15:52;;;;;;;;;;;;;;;;;;5051855;28;19920;-41
2022/07/21 05:18:17;;;;;;;;;;;;;;;;;;5052002;28;19916;-41
2022/07/21 05:20:42;;;;;;;;;;;;;;;;;;5052165;28;19977;-41
2022/07/21 05:23:08;;;;;;;;;;;;;;;;;;5051796;28;20267;-42
2022/07/21 05:25:35;;;;;;;;;;;;;;;;;;5051966;28;19956;-42
2022/07/21 05:28:00;;;;;;;;;;;;;;;;;;5051909;28;19959;-41
2022/07/21 05:30:26;;;;;;;;;;;;;;;;;;5052015;28;20327;-41
2022/07/21 05:32:51;;;;;;;;;;;;;;;;;;5052129;28;19905;-42
2022/07/21 05:35:16;;;;;;;;;;;;;;;;;;5051679;28;19923;-41
2022/07/21 05:37:42;;;;;;;;;;;;;;;;;;5051869;28;19957;-41
2022/07/21 05:40:07;;;;;;;;;;;;;;;;;;5051945;28;20394;-42
2022/07/21 05:42:32;;;;;;;;;;;;;;;;;;5051612;28;20359;-41
2022/07/21 05:44:58;;;;;;;;;;;;;;;;;;5051832;28;19921;-41
2022/07/21 05:47:23;;;;;;;;;;;;;;;;;;5051559;28;19908;-42
2022/07/21 05:49:48;;;;;;;;;;;;;;;;;;5051716;28;19912;-42
2022/07/21 05:52:14;;;;;;;;;;;;;;;;;;5051742;28;20508;-41
2022/07/21 05:54:39;;;;;;;;;;;;;;;;;;5052136;28;20371;-42
2022/07/21 05:57:04;;;;;;;;;;;;;;;;;;5051468;28;20286;-41
2022/07/21 05:59:30;;;;;;;;;;;;;;;;;;5051612;28;19963;-42
2022/07/21 06:01:55;;;;;;;;;;;;;;;;;;5051777;28;19904;-42
2022/07/21 06:04:21;;;;;;;;;;;;;;;;;;5051303;28;20306;-40
2022/07/21 06:06:46;;;;;;;;;;;;;;;;;;5051513;28;20363;-41
2022/07/21 06:09:11;;;;;;;;;;;;;;;;;;5051399;28;19994;-42
2022/07/21 06:11:37;;;;;;;;;;;;;;;;;;5051300;28;19905;-41
2022/07/21 06:14:02;;;;;;;;;;;;;;;;;;5052707;28;20007;-40
2022/07/21 06:16:27;;;;;;;;;;;;;;;;;;5055250;28;19916;-41
2022/07/21 06:18:52;;;;;;;;;;;;;;;;;;5055565;28;20019;-41
2022/07/21 06:21:18;;;;;;;;;;;;;;;;;;5055495;28;20308;-41
2022/07/21 06:23:43;;;;;;;;;;;;;;;;;;5055417;28;20405;-41
2022/07/21 06:26:09;;;;;;;;;;;;;;;;;;5055105;28;19905;-41
2022/07/21 06:28:34;;;;;;;;;;;;;;;;;;5055489;28;19915;-40
2022/07/21 06:30:59;;;;;;;;;;;;;;;;;;5055190;28;19986;-41
2022/07/21 06:33:25;;;;;;;;;;;;;;;;;;5055230;28;19908;-41
2022/07/21 06:35:50;;;;;;;;;;;;;;;;;;5055366;28;20251;-42
2022/07/21 06:38:15;;;;;;;;;;;;;;;;;;5055028;28;19913;-40
2022/07/21 06:40:41;;;;;;;;;;;;;;;;;;5055248;28;19909;-41
2022/07/21 06:43:06;;;;;;;;;;;;;;;;;;5055031;28;20279;-43
2022/07/21 06:45:31;;;;;;;;;;;;;;;;;;5054926;28;19999;-41
2022/07/21 06:47:57;;;;;;;;;;;;;;;;;;5055107;28;19912;-41
2022/07/21 06:50:22;;;;;;;;;;;;;;;;;;5054621;28;20285;-40
2022/07/21 06:52:47;;;;;;;;;;;;;;;;;;5054795;28;19908;-42
2022/07/21 06:55:13;;;;;;;;;;;;;;;;;;5054835;28;19923;-41
2022/07/21 06:57:38;;;;;;;;;;;;;;;;;;5055046;28;19912;-42
2022/07/21 07:00:03;;;;;;;;;;;;;;;;;;5054939;28;19915;-41
2022/07/21 07:02:29;;;;;;;;;;;;;;;;;;5054396;28;19951;-41
2022/07/21 07:04:55;;;;;;;;;;;;;;;;;;5054540;28;19919;-40
2022/07/21 07:07:20;;;;;;;;;;;;;;;;;;5054429;28;19909;-42
2022/07/21 07:09:45;;;;;;;;;;;;;;;;;;5054662;28;19913;-41
2022/07/21 07:12:11;;;;;;;;;;;;;;;;;;5054596;28;19915;-40
2022/07/21 07:14:36;;;;;;;;;;;;;;;;;;5054296;28;20434;-41
2022/07/21 07:17:01;;;;;;;;;;;;;;;;;;5054187;28;19967;-40
2022/07/21 07:19:27;;;;;;;;;;;;;;;;;;5053029;28;19966;-40
2022/07/21 07:21:52;;;;;;;;;;;;;;;;;;5054125;28;20615;-40
2022/07/21 07:24:17;;;;;;;;;;;;;;;;;;5053987;28;20016;-42
2022/07/21 07:26:42;;;;;;;;;;;;;;;;;;5053469;28;19913;-40
2022/07/21 07:29:08;;;;;;;;;;;;;;;;;;5053955;28;20270;-42
2022/07/21 07:31:33;;;;;;;;;;;;;;;;;;5054002;28;20248;-40
2022/07/21 07:33:59;;;;;;;;;;;;;;;;;;5054052;28;19916;-41
2022/07/21 07:36:24;;;;;;;;;;;;;;;;;;5052637;28;19915;-41
2022/07/21 07:38:51;;;;;;;;;;;;;;;;;;5054011;28;19915;-40
2022/07/21 07:41:16;;;;;;;;;;;;;;;;;;5053807;28;20249;-41
2022/07/21 07:43:42;;;;;;;;;;;;;;;;;;5053716;28;19924;-40
2022/07/21 07:46:10;;;;;;;;;;;;;;;;;;5053609;28;19908;-42
2022/07/21 07:48:36;;;;;;;;;;;;;;;;;;5052472;28;20351;-41
2022/07/21 07:51:01;;;;;;;;;;;;;;;;;;5053718;28;19912;-42
2022/07/21 07:53:27;;;;;;;;;;;;;;;;;;5053571;28;19904;-41
2022/07/21 07:55:52;;;;;;;;;;;;;;;;;;5053698;28;19913;-41
2022/07/21 07:58:17;;;;;;;;;;;;;;;;;;5053445;28;20322;-43
2022/07/21 08:00:43;;;;;;;;;;;;;;;;;;5053712;28;20260;-41
2022/07/21 08:03:08;;;;;;;;;;;;;;;;;;5053373;28;20405;-40
2022/07/21 08:05:34;;;;;;;;;;;;;;;;;;5053616;28;19952;-40
2022/07/21 08:07:59;;;;;;;;;;;;;;;;;;5053707;28;20270;-42
2022/07/21 08:10:24;;;;;;;;;;;;;;;;;;5053242;28;20436;-41
2022/07/21 08:12:50;;;;;;;;;;;;;;;;;;5053301;28;19904;-41
2022/07/21 08:15:15;;;;;;;;;;;;;;;;;;5053015;28;19913;-41
2022/07/21 08:17:41;;;;;;;;;;;;;;;;;;5053202;28;19915;-43
2022/07/21 08:20:06;;;;;;;;;;;;;;;;;;5051659;28;19948;-41
2022/07/21 08:22:32;;;;;;;;;;;;;;;;;;5053126;28;19953;-40
2022/07/21 08:24:57;;;;;;;;;;;;;;;;;;5052977;28;19917;-40
2022/07/21 08:27:22;;;;;;;;;;;;;;;;;;5053145;28;20056;-41
2022/07/21 08:29:49;;;;;;;;;;;;;;;;;;5051621;28;19908;-42
2022/07/21 08:32:17;;;;;;;;;;;;;;;;;;5052856;28;19909;-41
2022/07/21 08:34:43;;;;;;;;;;;;;;;;;;5053124;28;19947;-40
2022/07/21 08:37:08;;;;;;;;;;;;;;;;;;5052497;28;19998;-43
2022/07/21 08:39:33;;;;;;;;;;;;;;;;;;5052841;28;19908;-42
2022/07/21 08:41:59;;;;;;;;;;;;;;;;;;5052603;28;19905;-40
2022/07/21 08:44:25;;;;;;;;;;;;;;;;;;5051232;28;20011;-41
2022/07/21 08:46:51;;;;;;;;;;;;;;;;;;5053012;28;19911;-39
2022/07/21 08:49:16;;;;;;;;;;;;;;;;;;5052695;28;19913;-43
2022/07/21 08:51:41;;;;;;;;;;;;;;;;;;5051206;28;20318;-40
2022/07/21 08:54:07;;;;;;;;;;;;;;;;;;5052490;28;19908;-40
2022/07/21 08:56:32;;;;;;;;;;;;;;;;;;5052462;28;19908;-41
2022/07/21 08:58:57;;;;;;;;;;;;;;;;;;5052407;28;19909;-43
2022/07/21 09:01:26;;;;;;;;;;;;;;;;;;5052203;28;19909;-42
2022/07/21 09:03:51;;;;;;;;;;;;;;;;;;5052510;28;20330;-41
2022/07/21 09:06:17;;;;;;;;;;;;;;;;;;5052224;28;19905;-40
2022/07/21 09:08:43;;;;;;;;;;;;;;;;;;5052619;28;20363;-42
2022/07/21 09:11:08;;;;;;;;;;;;;;;;;;5052307;28;19936;-40
2022/07/21 09:13:34;;;;;;;;;;;;;;;;;;5052136;28;20367;-41
2022/07/21 09:15:59;;;;;;;;;;;;;;;;;;5051904;28;19996;-42
2022/07/21 09:18:24;;;;;;;;;;;;;;;;;;5052065;28;19909;-40
2022/07/21 09:20:49;;;;;;;;;;;;;;;;;;5051931;28;19908;-40
2022/07/21 09:23:15;;;;;;;;;;;;;;;;;;5051773;28;19928;-41
2022/07/21 09:25:40;;;;;;;;;;;;;;;;;;5051986;28;19904;-41
2022/07/21 09:28:05;;;;;;;;;;;;;;;;;;5051900;28;19909;-42
2022/07/21 09:30:31;;;;;;;;;;;;;;;;;;5051755;28;19927;-41
2022/07/21 09:32:56;;;;;;;;;;;;;;;;;;5051858;28;20329;-40
2022/07/21 09:35:21;;;;;;;;;;;;;;;;;;5051787;28;19905;-41
2022/07/21 09:37:48;;;;;;;;;;;;;;;;;;5050593;28;20421;-41
2022/07/21 09:40:13;;;;;;;;;;;;;;;;;;5051654;28;19909;-41
2022/07/21 09:42:39;;;;;;;;;;;;;;;;;;5052134;28;19919;-40
2022/07/21 09:45:04;;;;;;;;;;;;;;;;;;5051818;28;19917;-41
2022/07/21 09:47:29;;;;;;;;;;;;;;;;;;5051652;28;19908;-41
2022/07/21 09:49:55;;;;;;;;;;;;;;;;;;5050981;28;19947;-40
2022/07/21 09:52:20;;;;;;;;;;;;;;;;;;5051754;28;19940;-41
2022/07/21 09:54:46;;;;;;;;;;;;;;;;;;5051710;28;19905;-41
2022/07/21 09:57:11;;;;;;;;;;;;;;;;;;5051426;28;19954;-41
2022/07/21 09:59:36;;;;;;;;;;;;;;;;;;5051482;28;19912;-42
2022/07/21 10:02:02;;;;;;;;;;;;;;;;;;5051562;28;19915;-41
2022/07/21 10:04:29;;;;;;;;;;;;;;;;;;5051392;28;19916;-41
2022/07/21 10:06:55;;;;;;;;;;;;;;;;;;5051398;28;20279;-41
2022/07/21 10:09:20;;;;;;;;;;;;;;;;;;5051686;28;19909;-41
2022/07/21 10:11:45;;;;;;;;;;;;;;;;;;5051778;28;19909;-42
2022/07/21 10:14:11;;;;;;;;;;;;;;;;;;5051403;28;19905;-41
2022/07/21 10:16:36;;;;;;;;;;;;;;;;;;5051245;28;19920;-42
2022/07/21 10:19:02;;;;;;;;;;;;;;;;;;5051490;28;19995;-41
2022/07/21 10:21:27;;;;;;;;;;;;;;;;;;5051503;28;20355;-42
2022/07/21 10:23:53;;;;;;;;;;;;;;;;;;5051336;28;19962;-41
2022/07/21 10:26:18;;;;;;;;;;;;;;;;;;5051294;28;19908;-40
2022/07/21 10:28:44;;;;;;;;;;;;;;;;;;5051396;28;19911;-42
2022/07/21 10:31:09;;;;;;;;;;;;;;;;;;5051217;28;19913;-40
2022/07/21 10:33:37;;;;;;;;;;;;;;;;;;5051319;28;19909;-40
2022/07/21 10:36:03;;;;;;;;;;;;;;;;;;5049921;28;19924;-42
2022/07/21 10:38:28;;;;;;;;;;;;;;;;;;5051175;28;19905;-41
2022/07/21 10:40:54;;;;;;;;;;;;;;;;;;5051161;28;19924;-41
2022/07/21 10:43:22;;;;;;;;;;;;;;;;;;5051282;28;20315;-41
2022/07/21 10:45:48;;;;;;;;;;;;;;;;;;5051190;28;19948;-41
2022/07/21 10:48:13;;;;;;;;;;;;;;;;;;5050984;28;20328;-41
2022/07/21 10:50:38;;;;;;;;;;;;;;;;;;5051111;28;20334;-41
2022/07/21 10:53:04;;;;;;;;;;;;;;;;;;5049910;28;19915;-41
2022/07/21 10:55:29;;;;;;;;;;;;;;;;;;5051210;28;19916;-41
2022/07/21 10:57:54;;;;;;;;;;;;;;;;;;5051064;28;20263;-40
2022/07/21 11:00:20;;;;;;;;;;;;;;;;;;5052465;28;19954;-43
2022/07/21 11:02:45;;;;;;;;;;;;;;;;;;5053437;28;19908;-40
2022/07/21 11:05:11;;;;;;;;;;;;;;;;;;5054361;28;20012;-42
2022/07/21 11:07:36;;;;;;;;;;;;;;;;;;5054539;28;19905;-42
2022/07/21 11:10:01;;;;;;;;;;;;;;;;;;5054604;28;19912;-41
2022/07/21 11:12:27;;;;;;;;;;;;;;;;;;5054572;28;20007;-41
2022/07/21 11:14:53;;;;;;;;;;;;;;;;;;5054462;28;19913;-42
2022/07/21 11:17:18;;;;;;;;;;;;;;;;;;5053988;28;19920;-43
2022/07/21 11:19:46;;;;;;;;;;;;;;;;;;5054228;28;19999;-42
2022/07/21 11:22:12;;;;;;;;;;;;;;;;;;5054476;28;20070;-41
2022/07/21 11:24:38;;;;;;;;;;;;;;;;;;5054280;28;20433;-40
2022/07/21 11:27:03;;;;;;;;;;;;;;;;;;5054198;28;19904;-42
2022/07/21 11:29:29;;;;;;;;;;;;;;;;;;5054096;28;20429;-41
2022/07/21 11:31:55;;;;;;;;;;;;;;;;;;5054019;28;19905;-41
2022/07/21 11:34:20;;;;;;;;;;;;;;;;;;5052692;28;19909;-40
2022/07/21 11:36:46;;;;;;;;;;;;;;;;;;5053980;28;19908;-41
2022/07/21 11:39:11;;;;;;;;;;;;;;;;;;5053695;28;19920;-40
2022/07/21 11:41:36;;;;;;;;;;;;;;;;;;5053870;28;20007;-42
2022/07/21 11:44:02;;;;;;;;;;;;;;;;;;5053689;28;19917;-40
2022/07/21 11:46:27;;;;;;;;;;;;;;;;;;5053987;28;19909;-42
2022/07/21 11:48:53;;;;;;;;;;;;;;;;;;5053778;28;20294;-41
2022/07/21 11:51:18;;;;;;;;;;;;;;;;;;5053471;28;19905;-40
2022/07/21 11:53:44;;;;;;;;;;;;;;;;;;5053960;28;20278;-42
2022/07/21 11:56:09;;;;;;;;;;;;;;;;;;5053527;28;19909;-40
2022/07/21 11:58:34;;;;;;;;;;;;;;;;;;5053539;28;19916;-41
2022/07/21 12:01:00;;;;;;;;;;;;;;;;;;5053799;28;20007;-42
2022/07/21 12:03:25;;;;;;;;;;;;;;;;;;5053402;28;20507;-40
2022/07/21 12:05:51;;;;;;;;;;;;;;;;;;5053400;28;19905;-42
2022/07/21 12:08:16;;;;;;;;;;;;;;;;;;5053517;28;19913;-41
2022/07/21 12:10:41;;;;;;;;;;;;;;;;;;5053232;28;20564;-40
2022/07/21 12:13:08;;;;;;;;;;;;;;;;;;5052740;28;19908;-42
2022/07/21 12:15:37;;;;;;;;;;;;;;;;;;5053030;28;19912;-42
2022/07/21 12:18:02;;;;;;;;;;;;;;;;;;5053495;28;19932;-41
2022/07/21 12:20:27;;;;;;;;;;;;;;;;;;5053134;28;19988;-41
2022/07/21 12:22:53;;;;;;;;;;;;;;;;;;5053607;28;19913;-41
2022/07/21 12:25:18;;;;;;;;;;;;;;;;;;5053233;28;19963;-40
2022/07/21 12:27:45;;;;;;;;;;;;;;;;;;5052985;28;20011;-41
2022/07/21 12:30:10;;;;;;;;;;;;;;;;;;5052800;28;19954;-40
2022/07/21 12:32:36;;;;;;;;;;;;;;;;;;5052944;28;19944;-41
2022/07/21 12:35:01;;;;;;;;;;;;;;;;;;5053048;28;19951;-41
2022/07/21 12:37:27;;;;;;;;;;;;;;;;;;5052710;28;19909;-42
2022/07/21 12:39:58;;;;;;;;;;;;;;;;;;5053131;28;19959;-41
2022/07/21 12:42:23;;;;;;;;;;;;;;;;;;5052882;28;19919;-41
2022/07/21 12:44:49;;;;;;;;;;;;;;;;;;5052718;28;19916;-41
2022/07/21 12:47:14;;;;;;;;;;;;;;;;;;5052484;28;19912;-41
2022/07/21 12:49:40;;;;;;;;;;;;;;;;;;5052787;28;19915;-40
2022/07/21 12:52:06;;;;;;;;;;;;;;;;;;5052531;28;19916;-41
2022/07/21 12:54:32;;;;;;;;;;;;;;;;;;5052700;28;19905;-41
2022/07/21 12:56:58;;;;;;;;;;;;;;;;;;5052673;28;19921;-41
2022/07/21 12:59:26;;;;;;;;;;;;;;;;;;5052277;28;19913;-42
2022/07/21 13:01:52;;;;;;;;;;;;;;;;;;5052343;28;19912;-40
2022/07/21 13:04:17;;;;;;;;;;;;;;;;;;5052129;28;19921;-42
2022/07/21 13:06:46;;;;;;;;;;;;;;;;;;5052305;28;20323;-41
2022/07/21 13:09:12;;;;;;;;;;;;;;;;;;5052171;28;20030;-41
2022/07/21 13:11:37;;;;;;;;;;;;;;;;;;5052336;28;19909;-41
2022/07/21 13:14:03;;;;;;;;;;;;;;;;;;5052140;28;19908;-41
2022/07/21 13:16:31;;;;;;;;;;;;;;;;;;5051949;28;19924;-41
2022/07/21 13:18:57;;;;;;;;;;;;;;;;;;5051958;28;19923;-41
2022/07/21 13:21:22;;;;;;;;;;;;;;;;;;5052542;28;19943;-41
2022/07/21 13:23:48;;;;;;;;;;;;;;;;;;5051091;28;20305;-41
2022/07/21 13:26:13;;;;;;;;;;;;;;;;;;5051835;28;19912;-41
2022/07/21 13:28:41;;;;;;;;;;;;;;;;;;5052074;28;19915;-40
2022/07/21 13:31:07;;;;;;;;;;;;;;;;;;5052095;28;19942;-42
2022/07/21 13:33:32;;;;;;;;;;;;;;;;;;5051991;28;19915;-41
2022/07/21 13:35:58;;;;;;;;;;;;;;;;;;5051830;28;19951;-41
2022/07/21 13:38:24;;;;;;;;;;;;;;;;;;5051791;28;19905;-41
2022/07/21 13:40:49;;;;;;;;;;;;;;;;;;5051768;28;19915;-41
2022/07/21 13:43:16;;;;;;;;;;;;;;;;;;5051845;28;19904;-41
2022/07/21 13:45:42;;;;;;;;;;;;;;;;;;5050528;28;19920;-41
2022/07/21 13:48:14;;;;;;;;;;;;;;;;;;5051546;28;19919;-41
2022/07/21 13:50:39;;;;;;;;;;;;;;;;;;5051573;28;19909;-41
2022/07/21 13:53:05;;;;;;;;;;;;;;;;;;5051667;28;19905;-41
2022/07/21 13:55:30;;;;;;;;;;;;;;;;;;5051589;28;19909;-40
2022/07/21 13:57:56;;;;;;;;;;;;;;;;;;5051934;28;19913;-41
2022/07/21 14:00:24;;;;;;;;;;;;;;;;;;5051393;28;19917;-41
2022/07/21 14:02:49;;;;;;;;;;;;;;;;;;5050268;28;20006;-40
2022/07/21 14:05:15;;;;;;;;;;;;;;;;;;5051704;28;20011;-40
2022/07/21 14:07:40;;;;;;;;;;;;;;;;;;5051788;28;19944;-42
2022/07/21 14:10:06;;;;;;;;;;;;;;;;;;5051740;28;19909;-42
2022/07/21 14:12:31;;;;;;;;;;;;;;;;;;5051394;28;20362;-42
2022/07/21 14:14:57;;;;;;;;;;;;;;;;;;5051480;28;19913;-42
2022/07/21 14:17:23;;;;;;;;;;;;;;;;;;5051257;28;19955;-41
2022/07/21 14:19:48;;;;;;;;;;;;;;;;;;5051340;28;20027;-41
2022/07/21 14:22:14;;;;;;;;;;;;;;;;;;5051275;28;19912;-41
2022/07/21 14:27:26;;;;;;;;;;;;;;;;;;5051693;28;19958;-41
2022/07/21 14:29:52;;;;;;;;;;;;;;;;;;5051596;28;20370;-41
2022/07/21 14:32:21;;;;;;;;;;;;;;;;;;5051202;28;20373;-41
2022/07/21 14:34:47;;;;;;;;;;;;;;;;;;5052070;28;19905;-41
2022/07/21 14:37:12;;;;;;;;;;;;;;;;;;5055014;28;19982;-41
2022/07/21 14:39:41;;;;;;;;;;;;;;;;;;5055105;28;19912;-43
2022/07/21 14:42:06;;;;;;;;;;;;;;;;;;5054970;28;19913;-43
2022/07/21 14:44:32;;;;;;;;;;;;;;;;;;5054821;28;20011;-42
2022/07/21 14:46:57;;;;;;;;;;;;;;;;;;5054965;28;19935;-41
2022/07/21 14:49:23;;;;;;;;;;;;;;;;;;5054832;28;20384;-41
2022/07/21 14:51:48;;;;;;;;;;;;;;;;;;5054724;28;19908;-40
2022/07/21 14:54:16;;;;;;;;;;;;;;;;;;5054675;28;19908;-41
2022/07/21 14:56:42;;;;;;;;;;;;;;;;;;5054745;28;20244;-42
2022/07/21 14:59:07;;;;;;;;;;;;;;;;;;5054748;28;20038;-42
2022/07/21 15:01:33;;;;;;;;;;;;;;;;;;5054505;28;20321;-41
2022/07/21 15:03:58;;;;;;;;;;;;;;;;;;5054565;28;20001;-42
2022/07/21 15:06:24;;;;;;;;;;;;;;;;;;5054703;28;19998;-41
2022/07/21 15:08:49;;;;;;;;;;;;;;;;;;5053269;28;20267;-40
2022/07/21 15:11:16;;;;;;;;;;;;;;;;;;5054349;28;19955;-41
2022/07/21 15:13:41;;;;;;;;;;;;;;;;;;5054574;28;19927;-41
2022/07/21 15:16:07;;;;;;;;;;;;;;;;;;5054413;28;20535;-41
2022/07/21 15:18:32;;;;;;;;;;;;;;;;;;5054675;28;20498;-41
2022/07/21 15:21:01;;;;;;;;;;;;;;;;;;5054189;28;19948;-41
2022/07/21 15:23:26;;;;;;;;;;;;;;;;;;5054178;28;19963;-42
2022/07/21 15:25:51;;;;;;;;;;;;;;;;;;5054172;28;19912;-41
2022/07/21 15:28:17;;;;;;;;;;;;;;;;;;5054135;28;19909;-41
2022/07/21 15:30:42;;;;;;;;;;;;;;;;;;5054368;28;19909;-41
2022/07/21 15:33:10;;;;;;;;;;;;;;;;;;5054009;28;19931;-41
2022/07/21 15:35:37;;;;;;;;;;;;;;;;;;5054201;28;20362;-41
2022/07/21 15:38:02;;;;;;;;;;;;;;;;;;5053902;28;19928;-41
2022/07/21 15:40:29;;;;;;;;;;;;;;;;;;5053940;28;20321;-42
2022/07/21 15:42:54;;;;;;;;;;;;;;;;;;5053898;28;19934;-40
2022/07/21 15:45:20;;;;;;;;;;;;;;;;;;5053588;28;19917;-41
2022/07/21 15:47:46;;;;;;;;;;;;;;;;;;5053157;28;19904;-41
2022/07/21 15:50:11;;;;;;;;;;;;;;;;;;5053651;28;20295;-41
2022/07/21 15:52:37;;;;;;;;;;;;;;;;;;5053827;28;19904;-41
2022/07/21 15:55:02;;;;;;;;;;;;;;;;;;5053869;28;20006;-41
2022/07/21 15:57:28;;;;;;;;;;;;;;;;;;5053548;28;19997;-41
2022/07/21 15:59:53;;;;;;;;;;;;;;;;;;5053655;28;19919;-41
2022/07/21 16:02:19;;;;;;;;;;;;;;;;;;5053401;28;20443;-41
2022/07/21 16:04:45;;;;;;;;;;;;;;;;;;5053345;28;20015;-41
2022/07/21 16:07:11;;;;;;;;;;;;;;;;;;5052254;28;20351;-41
2022/07/21 16:09:37;;;;;;;;;;;;;;;;;;5053519;28;19920;-40
2022/07/21 16:12:03;;;;;;;;;;;;;;;;;;5053355;28;19905;-40
2022/07/21 16:14:28;;;;;;;;;;;;;;;;;;5053265;28;20317;-40
2022/07/21 16:16:57;;;;;;;;;;;;;;;;;;5053094;28;19968;-42
2022/07/21 16:19:22;;;;;;;;;;;;;;;;;;5053096;28;20011;-41
2022/07/21 16:21:47;;;;;;;;;;;;;;;;;;5053151;28;19989;-41
2022/07/21 16:24:13;;;;;;;;;;;;;;;;;;5053247;28;19927;-42
2022/07/21 16:26:38;;;;;;;;;;;;;;;;;;5053381;28;20420;-41
2022/07/21 16:29:05;;;;;;;;;;;;;;;;;;5052989;28;19912;-41
2022/07/21 16:31:30;;;;;;;;;;;;;;;;;;5052894;28;20438;-40
2022/07/21 16:33:55;;;;;;;;;;;;;;;;;;5052958;28;19995;-41
2022/07/21 16:36:21;;;;;;;;;;;;;;;;;;5052833;28;20298;-41
2022/07/21 16:38:47;;;;;;;;;;;;;;;;;;5053110;28;19913;-41